Date,TemperatureHighF,TemperatureAvgF,TemperatureLowF,DewpointHighF,DewpointAvgF,DewpointLowF,HumidityHigh,HumidityAvg,HumidityLow,PressureMaxIn,PressureMinIn,WindSpeedMaxMPH,WindSpeedAvgMPH,GustSpeedMaxMPH,PrecipitationSumIn
2013-1-1,28,16,5,18,10,0,83,76,62,30.32,30.16,5,1,5,0.00
2013-1-2,19,6,-3,11,0,-8,84,78,70,30.41,30.32,6,1,6,0.00
2013-1-3,23,8,-3,14,2,-8,82,76,65,30.36,30.18,4,0,4,0.00
2013-1-4,26,13,2,16,6,-4,82,75,59,30.25,30.15,6,1,6,0.00
2013-1-5,31,15,5,20,8,0,84,75,58,30.30,30.11,5,1,5,0.00
2013-1-6,33,19,6,23,13,2,87,78,66,30.11,29.92,7,1,7,0.00
2013-1-7,36,27,17,28,21,13,88,78,69,29.99,29.77,16,3,16,0.00
2013-1-8,40,36,32,27,24,22,73,62,50,30.01,29.78,22,5,22,0.00
2013-1-9,44,40,34,31,28,24,71,62,53,30.05,29.66,25,11,25,0.00
2013-1-10,43,27,12,33,22,7,93,81,55,29.77,29.59,16,7,16,0.00
2013-1-11,12,9,7,7,3,1,82,78,75,29.91,29.77,18,10,18,0.00
2013-1-13,8,3,1,0,-3,-6,79,75,68,30.17,30.14,4,1,4,0.00
2013-1-14,15,5,-8,9,-1,-13,82,76,63,30.19,30.09,11,3,11,0.00
2013-1-15,30,20,14,20,14,9,81,75,67,30.32,30.16,12,3,12,0.00
2013-1-16,37,23,13,23,14,8,81,71,55,30.37,30.26,9,2,9,0.00
2013-1-17,27,19,9,17,11,3,81,73,62,30.39,30.19,6,1,6,0.00
2013-1-18,48,30,19,30,20,12,79,65,50,30.20,30.02,11,3,11,0.00
2013-1-19,40,30,23,24,18,12,68,60,49,30.26,30.14,10,2,10,0.00
2013-1-20,35,26,17,22,17,12,81,69,57,30.36,30.19,14,2,14,0.00
2013-1-21,39,22,8,27,15,3,86,74,61,30.22,30.07,8,1,8,0.00
2013-1-22,36,23,13,23,14,6,75,66,55,30.17,30.09,8,1,8,0.00
2013-1-23,41,33,22,25,22,15,76,63,49,30.11,29.92,12,2,12,0.00
2013-1-24,51,38,26,33,25,20,83,61,46,30.11,29.92,13,3,13,0.00
2013-1-25,47,37,27,33,28,21,82,70,56,30.12,29.95,11,2,11,0.00
2013-1-26,47,37,30,36,31,27,89,78,62,29.95,29.70,13,3,13,0.00
2013-1-27,39,30,21,29,24,16,91,79,61,29.86,29.80,9,1,10,0.00
2013-1-28,36,24,10,24,16,7,88,74,59,29.88,29.74,12,3,12,0.00
2013-1-29,26,19,12,20,11,3,86,71,61,30.09,29.72,19,5,19,0.00
2013-1-30,40,29,15,29,20,9,79,70,54,30.01,29.90,21,3,21,0.00
2013-1-31,43,39,36,31,28,25,74,65,55,30.10,30.00,16,5,16,0.00
2013-2-1,45,38,30,30,26,20,78,63,48,30.26,30.01,20,4,20,0.00
2013-2-2,42,31,24,28,22,18,78,69,57,30.36,30.21,10,3,10,0.00
2013-2-3,40,31,23,29,23,17,82,73,57,30.22,29.98,8,2,8,0.00
2013-2-4,43,37,29,30,27,24,83,67,54,29.98,29.91,14,3,14,0.00
2013-2-5,48,38,31,34,28,25,80,69,57,29.98,29.77,13,3,13,0.00
2013-2-6,42,34,25,28,24,19,82,68,48,30.07,29.80,15,3,15,0.00
2013-2-7,42,32,24,26,22,18,79,66,44,30.07,29.89,10,2,10,0.00
2013-2-8,38,29,22,27,22,17,86,76,61,29.95,29.88,4,1,4,0.00
2013-2-9,37,29,21,27,22,17,92,77,54,29.95,29.80,17,3,17,0.00
2013-2-10,30,25,14,24,16,8,84,70,53,30.12,29.95,17,5,17,0.00
2013-2-11,34,21,10,21,13,5,83,71,55,30.11,30.00,10,3,10,0.00
2013-2-12,41,31,21,28,21,12,73,67,57,30.12,30.03,12,5,12,0.00
2013-2-13,45,38,32,29,25,18,72,59,35,30.11,29.96,25,6,25,0.00
2013-2-14,38,31,25,25,22,18,79,69,55,30.29,30.10,16,3,16,0.00
2013-2-15,45,33,22,29,23,17,84,70,50,30.36,30.21,14,3,14,0.00
2013-2-16,49,37,26,31,25,20,77,64,47,30.21,29.77,21,6,21,0.00
2013-2-17,38,34,27,28,25,20,86,71,51,29.99,29.76,16,3,16,0.00
2013-2-18,38,30,23,25,20,15,87,70,43,30.06,29.89,10,3,10,0.00
2013-2-19,41,29,22,24,20,15,81,69,45,29.89,29.67,5,1,5,0.00
2013-2-20,34,27,20,28,22,16,88,82,71,29.87,29.73,7,1,7,0.00
2013-2-21,36,26,15,25,19,11,90,74,55,29.95,29.86,11,3,11,0.00
2013-2-22,42,33,25,24,21,17,75,61,41,29.94,29.68,20,7,20,0.00
2013-2-23,40,33,27,30,22,13,93,64,40,30.03,29.62,17,5,17,0.00
2013-2-24,39,26,14,21,16,9,82,65,44,30.16,30.03,15,4,15,0.00
2013-2-25,40,31,24,25,19,14,70,61,49,30.06,29.83,16,7,16,0.00
2013-2-26,42,31,23,25,19,15,75,64,43,30.18,29.95,11,3,11,0.00
2013-2-27,44,29,17,22,17,11,80,63,38,30.24,30.11,14,4,14,0.00
2013-2-28,48,38,29,27,23,16,68,56,44,30.27,30.19,13,6,13,0.00
2013-3-1,54,43,35,34,30,25,74,60,43,30.28,30.22,12,3,12,0.00
2013-3-2,58,43,30,37,30,25,82,62,42,30.28,29.89,14,4,14,0.00
2013-3-3,44,37,25,38,24,7,90,62,30,30.02,29.67,26,8,26,0.00
2013-3-4,35,24,16,16,12,8,74,59,42,30.24,30.02,14,4,14,0.00
2013-3-5,42,25,12,22,14,6,81,64,36,30.19,29.93,5,1,5,0.00
2013-3-6,47,33,21,34,25,16,91,75,57,29.93,29.70,18,2,18,0.00
2013-3-7,47,34,23,31,23,15,91,67,29,30.01,29.82,14,3,14,0.00
2013-3-8,53,34,24,29,23,18,82,65,39,29.98,29.86,5,1,5,0.00
2013-3-9,54,31,19,28,20,14,87,66,33,30.23,29.95,11,2,11,0.00
2013-3-10,52,33,21,27,22,16,84,66,34,30.26,30.03,11,3,11,0.00
2013-3-11,46,37,26,29,22,11,77,56,25,30.21,30.05,26,6,26,0.00
2013-3-12,55,36,21,31,23,14,78,61,37,30.23,30.02,15,3,15,0.00
2013-3-13,64,49,36,35,29,25,68,48,25,30.15,30.09,12,3,14,0.00
2013-3-14,69,49,33,37,30,25,77,52,26,30.18,29.96,15,3,15,0.00
2013-3-15,62,50,37,30,26,20,58,39,22,30.03,29.95,20,6,20,0.00
2013-3-16,56,43,30,32,23,17,80,51,22,30.03,29.62,14,4,14,0.00
2013-3-17,45,34,25,32,22,12,93,65,40,29.90,29.58,22,5,22,0.00
2013-3-18,41,30,21,21,15,11,73,55,31,29.98,29.85,22,6,22,0.00
2013-3-19,54,34,25,22,16,9,74,49,21,30.20,29.98,17,5,17,0.00
2013-3-20,59,42,29,34,25,14,88,52,36,30.05,29.59,23,8,23,0.00
2013-3-21,42,34,23,31,20,9,92,61,30,29.91,29.67,19,5,19,0.00
2013-3-22,35,26,18,19,14,9,76,59,35,30.10,29.89,18,5,18,0.00
2013-3-23,44,24,14,18,9,4,71,55,29,30.21,30.10,10,2,10,0.00
2013-3-24,49,26,14,19,11,5,80,56,22,30.24,30.14,10,2,10,0.00
2013-3-25,58,30,14,16,9,5,74,46,16,30.16,29.97,14,3,14,0.00
2013-3-26,63,42,30,23,17,8,54,37,19,29.99,29.90,15,3,15,0.00
2013-3-27,61,41,21,30,22,14,79,52,25,30.01,29.93,14,3,14,0.00
2013-3-28,63,50,31,34,28,24,77,47,25,30.08,29.98,12,3,12,0.00
2013-3-29,58,45,33,41,34,27,82,66,43,30.16,30.05,13,2,13,0.00
2013-3-30,68,46,32,38,29,21,86,57,22,30.21,30.08,12,2,12,0.00
2013-3-31,60,43,24,31,25,18,82,53,29,30.11,30.02,13,4,13,0.00
2013-4-1,65,44,25,30,24,18,78,49,20,30.08,29.96,13,3,13,0.00
2013-4-2,80,47,25,31,24,16,75,45,15,30.09,29.91,12,2,12,0.00
2013-4-3,66,50,35,35,28,24,76,47,25,30.11,29.98,13,3,14,0.00
2013-4-4,71,51,34,39,31,24,74,49,22,30.05,29.78,15,2,17,0.00
2013-4-5,66,53,44,40,32,21,78,48,24,29.91,29.77,20,6,20,0.00
2013-4-6,63,46,34,39,31,25,87,58,30,29.91,29.79,18,4,18,0.00
2013-4-7,55,39,32,44,34,28,94,84,50,29.86,29.59,16,3,16,0.00
2013-4-8,33,29,26,28,22,18,86,76,53,30.02,29.77,16,9,16,0.00
2013-4-9,54,35,24,22,16,11,72,47,25,30.29,30.16,9,3,9,0.00
2013-4-10,60,41,23,40,26,15,86,58,33,30.19,29.77,18,4,18,0.00
2013-4-11,56,45,36,38,27,18,84,54,25,29.98,29.84,16,6,16,0.00
2013-4-12,66,42,24,27,21,15,81,48,18,30.05,29.63,13,3,13,0.00
2013-4-13,54,42,29,38,24,8,84,51,29,29.72,29.44,25,7,25,0.00
2013-4-14,40,32,24,27,21,14,85,63,41,29.91,29.71,17,5,17,0.00
2013-4-15,37,28,22,20,16,13,78,60,40,30.07,29.89,16,7,16,0.00
2013-4-16,36,28,19,17,13,11,74,56,40,30.21,30.03,18,6,18,0.00
2013-4-17,44,28,15,18,10,0,75,50,17,30.24,30.18,14,4,14,0.00
2013-4-18,47,24,16,21,12,8,76,61,32,30.20,30.16,9,2,9,0.00
2013-4-20,60,52,44,28,26,20,52,36,24,30.01,29.89,25,10,25,0.00
2013-4-21,43,34,24,29,25,20,90,72,51,30.16,29.99,21,7,21,0.00
2013-4-22,50,30,23,25,18,14,88,63,29,30.30,30.16,15,5,15,0.00
2013-4-23,52,34,18,23,18,12,79,54,28,30.28,30.10,12,3,12,0.00
2013-4-24,67,43,21,27,19,9,79,46,13,30.24,29.94,18,4,18,0.00
2013-4-25,73,55,42,24,20,17,40,27,15,30.03,29.85,21,5,21,0.00
2013-4-26,79,54,32,30,24,19,69,36,12,30.16,30.03,16,5,16,0.00
2013-4-27,76,66,39,34,23,17,61,23,12,30.14,29.90,24,10,24,0.00
2013-4-28,71,58,50,34,26,15,51,31,13,30.03,29.85,20,6,20,0.00
2013-4-29,61,51,37,37,23,15,58,34,20,29.85,29.60,30,11,30,0.00
2013-4-30,45,36,26,21,14,7,57,41,28,30.19,29.84,16,6,16,0.00
2013-5-1,55,40,22,22,16,11,72,41,20,30.51,30.19,16,3,16,0.00
2013-5-2,77,46,21,21,14,9,63,34,7,30.57,30.22,16,4,16,0.00
2013-5-3,61,49,36,38,27,12,83,45,28,30.24,30.14,18,6,18,0.00
2013-5-4,68,50,41,38,36,30,83,62,33,30.23,30.15,15,6,15,0.00
2013-5-5,81,51,29,38,31,24,85,52,16,30.17,29.97,12,2,12,0.00
2013-5-6,89,57,33,38,30,24,74,41,11,30.04,29.85,10,2,10,0.00
2013-5-7,75,57,36,38,32,25,70,42,22,30.04,29.90,23,6,23,0.00
2013-5-8,90,61,43,42,35,31,66,41,15,30.13,30.03,16,3,16,0.00
2013-5-9,79,60,44,40,34,29,65,40,19,30.16,30.07,17,3,17,0.00
2013-5-10,77,58,40,40,34,29,74,44,22,30.32,30.14,21,5,21,0.00
2013-5-11,80,61,40,39,33,27,66,38,18,30.32,30.11,14,3,14,0.00
2013-5-12,91,68,43,44,35,28,65,34,12,30.16,29.95,17,4,17,0.00
2013-5-13,93,72,49,45,35,21,62,32,9,30.05,29.75,26,8,26,0.00
2013-5-14,77,61,42,42,29,17,66,35,13,30.02,29.86,19,6,19,0.00
2013-5-15,80,62,43,32,27,21,45,28,12,30.06,29.86,17,4,17,0.00
2013-5-16,71,57,48,48,40,32,88,56,30,29.92,29.82,16,3,16,0.00
2013-5-17,62,52,45,49,46,42,92,81,58,29.95,29.84,14,3,14,0.00
2013-5-18,65,54,48,50,46,41,93,75,43,30.02,29.92,15,3,15,0.00
2013-5-19,52,50,48,47,45,42,91,83,75,30.13,30.01,13,4,13,0.00
2013-5-20,65,53,45,50,46,42,91,78,49,30.19,30.11,12,4,12,0.00
2013-5-21,83,57,39,51,41,32,94,63,25,30.11,29.77,16,4,16,0.00
2013-5-22,66,55,42,49,42,36,90,63,43,29.86,29.75,11,3,11,0.00
2013-5-23,52,47,41,49,41,38,93,80,64,29.95,29.84,11,4,11,0.00
2013-5-24,73,54,39,44,37,27,88,58,22,30.00,29.87,25,6,25,0.00
2013-5-25,78,55,37,48,39,31,82,57,29,30.00,29.88,15,3,15,0.00
2013-5-26,74,56,39,48,41,33,85,59,34,30.00,29.85,24,2,24,0.00
2013-5-27,85,57,41,51,45,38,94,68,26,29.96,29.80,13,4,13,0.00
2013-5-28,74,56,48,51,45,42,87,69,39,29.81,29.76,10,3,10,0.00
2013-5-29,70,55,48,50,46,42,87,72,43,29.81,29.70,14,2,14,0.00
2013-5-30,61,53,47,46,39,33,88,59,38,29.98,29.77,14,4,14,0.00
2013-5-31,59,51,46,42,38,33,74,60,50,30.27,29.98,11,3,11,0.00
2013-6-1,74,54,35,46,37,31,89,59,24,30.28,30.02,11,2,11,0.00
2013-6-2,76,55,47,49,44,38,92,68,34,30.03,29.79,16,3,16,0.00
2013-6-3,60,50,44,48,42,38,92,77,49,30.12,29.88,23,5,23,0.00
2013-6-4,72,51,41,41,39,34,88,65,31,30.20,30.11,11,4,11,0.00
2013-6-5,92,57,35,52,41,31,90,61,22,30.20,30.00,8,2,8,0.00
2013-6-6,97,65,43,51,45,38,88,55,17,30.11,29.99,6,2,6,0.00
2013-6-7,82,66,48,56,47,40,84,53,28,30.01,29.80,17,3,17,0.00
2013-6-8,89,66,45,49,36,26,81,40,12,30.00,29.90,16,4,16,0.00
2013-6-9,94,68,44,48,36,20,74,38,11,30.01,29.75,20,5,20,0.00
2013-6-10,84,66,46,54,35,21,75,35,18,29.93,29.75,18,3,18,0.00
2013-6-11,77,61,53,57,51,47,90,70,37,30.04,29.81,19,3,19,0.00
2013-6-12,90,64,46,59,49,39,93,65,19,30.06,29.85,21,5,21,0.00
2013-6-13,64,56,48,53,47,42,89,72,52,30.08,29.89,16,4,16,0.00
2013-6-14,74,55,42,49,41,33,92,65,24,30.14,30.00,16,5,16,0.00
2013-6-15,96,61,36,44,37,31,87,49,13,30.14,29.96,0,0,0,0.00
2013-6-16,86,64,40,46,38,30,75,43,16,30.12,30.03,0,0,0,0.00
2013-6-17,102,69,48,54,45,33,82,47,10,30.14,29.92,0,0,0,0.00
2013-6-18,102,73,50,57,46,32,85,46,10,29.97,29.67,0,0,0,0.00
2013-6-19,90,72,54,54,46,29,69,43,13,29.77,29.58,0,0,0,0.00
2013-6-20,80,64,53,40,34,29,54,35,18,30.04,29.93,0,0,0,0.00
2013-6-21,72,53,39,43,37,31,77,55,29,30.07,30.00,0,0,0,0.00
2013-6-22,68,55,47,49,44,34,84,67,42,30.06,30.01,0,0,0,0.00
2013-6-23,89,61,40,50,42,35,91,57,16,30.03,29.77,0,0,0,0.00
2013-6-24,86,64,47,56,46,39,78,55,24,29.78,29.63,0,0,0,0.00
2013-6-25,82,67,54,54,47,38,87,54,22,29.94,29.77,0,0,0,0.00
2013-6-26,85,68,57,52,47,42,74,50,23,30.14,29.94,0,0,0,0.00
2013-6-27,100,72,51,52,46,41,75,45,17,30.23,30.13,0,0,0,0.00
2013-6-28,99,75,52,52,45,40,70,39,15,30.29,30.15,0,0,0,0.00
2013-6-29,96,72,55,59,51,42,73,50,21,30.21,30.07,0,0,0,0.00
2013-6-30,99,75,52,58,52,47,85,50,21,30.17,30.08,0,0,0,0.00
2013-7-1,108,81,59,61,53,38,75,43,11,30.22,30.11,0,0,0,0.00
2013-7-2,100,76,58,57,52,42,73,48,16,30.20,30.06,0,0,0,0.00
2013-7-7,82,71,64,50,45,42,51,41,25,30.00,29.91,0,0,0,0.00
2013-7-8,92,72,52,53,47,41,73,44,21,30.13,29.98,0,0,0,0.00
2013-7-9,103,73,51,49,39,32,64,34,10,30.24,30.11,0,0,0,0.00
2013-7-10,107,78,52,52,38,27,65,31,6,30.19,29.91,0,0,0,0.00
2013-7-11,86,78,66,48,45,39,46,32,21,30.01,29.89,0,0,0,0.00
2013-7-12,93,74,55,50,42,31,62,37,13,30.02,29.88,0,0,0,0.00
2013-7-13,86,70,51,50,41,32,68,39,16,30.16,29.98,0,0,0,0.00
2013-7-14,104,73,53,52,44,33,73,42,10,30.23,30.04,0,0,0,0.00
2013-7-15,101,77,53,51,40,29,67,34,7,30.10,29.94,0,0,0,0.00
2013-7-16,96,72,57,53,48,45,66,46,19,30.23,30.10,0,0,0,0.00
2013-7-17,95,73,61,59,54,49,79,54,24,30.23,30.05,0,0,0,0.00
2013-7-18,95,74,54,57,43,26,81,42,10,30.24,30.12,0,0,0,0.00
2013-7-19,95,74,51,46,32,21,49,26,8,30.20,30.04,0,0,0,0.00
2013-7-20,104,74,49,42,30,21,44,22,3,30.11,29.92,0,0,0,0.00
2013-7-21,107,75,49,40,30,22,49,22,3,30.02,29.90,0,0,0,0.00
2013-7-22,97,74,49,42,30,23,50,23,5,30.05,29.94,0,0,0,0.00
2013-7-23,102,74,51,41,31,23,51,24,6,30.18,30.05,0,0,0,0.00
2013-7-24,109,77,52,49,35,19,51,25,6,30.16,29.99,0,0,0,0.00
2013-7-25,98,78,59,52,44,30,61,35,10,30.23,30.09,0,0,0,0.00
2013-7-26,106,78,55,54,41,26,69,35,7,30.25,30.04,0,0,0,0.00
2013-7-27,92,76,58,50,43,30,60,34,17,30.10,29.96,0,0,0,0.00
2013-7-28,90,69,52,57,46,38,67,46,19,30.01,29.87,0,0,0,0.00
2013-7-29,85,68,56,52,49,42,80,53,23,30.10,29.97,0,0,0,0.00
2013-7-30,84,68,54,55,46,38,78,50,21,30.24,30.07,0,0,0,0.00
2013-7-31,97,71,47,50,40,25,78,41,7,30.29,30.07,0,0,0,0.00
2013-8-1,69,61,55,50,44,41,68,54,40,30.15,30.05,0,0,0,0.00
2013-8-2,80,71,64,45,44,40,50,38,25,30.14,30.03,0,0,0,0.00
2013-8-3,88,69,50,52,44,34,71,45,17,30.18,30.06,0,0,0,0.00
2013-8-4,89,71,52,53,42,32,78,42,16,30.18,30.04,0,0,0,0.00
2013-8-5,95,70,49,51,40,32,61,38,13,30.12,29.96,0,0,0,0.00
2013-8-6,93,70,49,52,43,34,78,44,15,30.13,30.05,0,0,0,0.00
2013-8-7,102,71,48,45,36,27,67,34,7,30.11,29.99,0,0,0,0.00
2013-8-8,89,70,50,50,42,29,67,39,13,30.12,30.01,0,0,0,0.00
2013-8-9,89,71,57,53,49,44,66,47,26,30.18,30.07,0,0,0,0.00
2013-8-10,91,70,52,52,45,36,75,45,19,30.16,30.05,0,0,0,0.00
2013-8-11,87,68,52,48,41,36,59,39,19,30.16,30.08,0,0,0,0.00
2013-8-12,94,68,48,47,40,34,78,41,13,30.17,30.07,0,0,0,0.00
2013-8-13,94,70,53,55,44,36,77,43,16,30.23,30.07,0,0,0,0.00
2013-8-14,102,68,48,55,46,35,88,54,13,30.21,30.05,0,0,0,0.00
2013-8-15,106,72,48,48,39,30,72,37,6,30.15,30.00,0,0,0,0.00
2013-8-16,104,75,50,44,35,26,59,28,3,30.10,29.96,0,0,0,0.00
2013-8-17,98,74,52,45,37,30,51,29,10,30.15,29.98,0,0,0,0.00
2013-8-18,98,79,58,47,41,34,55,29,12,30.14,29.99,0,0,0,0.00
2013-8-19,101,76,52,46,36,22,57,28,5,30.15,29.96,0,0,0,0.00
2013-8-20,97,73,49,40,33,29,48,27,10,30.12,29.96,0,0,0,0.00
2013-8-21,93,72,53,41,34,25,52,28,10,30.18,30.05,0,0,0,0.00
2013-8-22,95,72,52,53,42,34,57,36,16,30.17,29.99,0,0,0,0.00
2013-8-23,85,67,57,60,55,48,85,68,29,30.08,29.93,0,0,0,0.00
2013-8-24,90,70,56,59,52,43,87,57,24,30.10,29.92,0,0,0,0.00
2013-8-25,96,71,52,53,47,38,80,48,16,30.12,29.96,0,0,0,0.00
2013-8-26,68,62,61,46,44,43,57,51,46,30.05,30.01,0,0,0,0.00
2013-9-23,70,58,44,48,37,32,94,49,27,30.01,29.91,0,0,0,0.00
2013-9-24,57,48,39,47,40,33,91,73,56,30.01,29.78,0,0,0,0.00
2013-10-19,72,59,51,40,30,27,43,34,27,30.07,29.96,0,0,0,0.00
2013-10-20,52,46,43,34,33,30,68,60,42,30.14,30.03,0,0,0,0.00